sensor_id;sensor_type;location;lat;lon;timestamp;pressure;altitude;pressure_sealevel;temperature;humidity
42761;BME280;31672;47.638;19.026;2024-02-04T00:04:05;100484.22;;;8.60;86.82
42761;BME280;31672;47.638;19.026;2024-02-04T00:09:08;100471.25;;;8.57;86.79
42761;BME280;31672;47.638;19.026;2024-02-04T00:14:12;100477.53;;;8.56;86.89
42761;BME280;31672;47.638;19.026;2024-02-04T00:19:16;100480.78;;;8.50;87.07
42761;BME280;31672;47.638;19.026;2024-02-04T00:24:19;100482.19;;;8.44;87.19
42761;BME280;31672;47.638;19.026;2024-02-04T00:29:23;100485.00;;;8.43;87.51
42761;BME280;31672;47.638;19.026;2024-02-04T00:34:27;100491.56;;;8.39;87.88
42761;BME280;31672;47.638;19.026;2024-02-04T00:39:31;100492.69;;;8.36;88.07
42761;BME280;31672;47.638;19.026;2024-02-04T00:44:35;100496.56;;;8.32;88.94
42761;BME280;31672;47.638;19.026;2024-02-04T00:49:39;100496.16;;;8.27;89.74
42761;BME280;31672;47.638;19.026;2024-02-04T00:54:43;100501.22;;;8.20;90.60
42761;BME280;31672;47.638;19.026;2024-02-04T00:59:46;100490.78;;;8.19;90.69
42761;BME280;31672;47.638;19.026;2024-02-04T01:04:50;100479.50;;;8.17;90.96
42761;BME280;31672;47.638;19.026;2024-02-04T01:09:54;100469.91;;;8.16;91.01
42761;BME280;31672;47.638;19.026;2024-02-04T01:14:58;100454.84;;;8.16;91.24
42761;BME280;31672;47.638;19.026;2024-02-04T01:20:01;100460.00;;;8.18;91.07
42761;BME280;31672;47.638;19.026;2024-02-04T01:25:06;100460.66;;;8.20;91.22
42761;BME280;31672;47.638;19.026;2024-02-04T01:30:10;100454.53;;;8.19;90.88
42761;BME280;31672;47.638;19.026;2024-02-04T01:35:13;100432.84;;;8.16;90.94
42761;BME280;31672;47.638;19.026;2024-02-04T01:40:18;100440.06;;;8.14;91.53
42761;BME280;31672;47.638;19.026;2024-02-04T01:45:22;100433.28;;;8.11;92.29
42761;BME280;31672;47.638;19.026;2024-02-04T01:50:25;100430.63;;;8.11;92.72
42761;BME280;31672;47.638;19.026;2024-02-04T01:55:29;100448.19;;;8.12;93.41
42761;BME280;31672;47.638;19.026;2024-02-04T02:00:32;100436.91;;;8.10;93.36
42761;BME280;31672;47.638;19.026;2024-02-04T02:05:36;100422.28;;;8.06;93.58
42761;BME280;31672;47.638;19.026;2024-02-04T02:10:39;100431.91;;;7.97;94.28
42761;BME280;31672;47.638;19.026;2024-02-04T02:15:51;100424.19;;;7.86;95.40
42761;BME280;31672;47.638;19.026;2024-02-04T02:26:24;100419.78;;;7.67;97.70
42761;BME280;31672;47.638;19.026;2024-02-04T02:31:28;100406.16;;;7.62;99.05
42761;BME280;31672;47.638;19.026;2024-02-04T02:37:59;100425.38;;;7.64;100.00
42761;BME280;31672;47.638;19.026;2024-02-04T02:42:43;100390.56;;;7.69;100.00
42761;BME280;31672;47.638;19.026;2024-02-04T02:47:50;100398.34;;;7.70;100.00
42761;BME280;31672;47.638;19.026;2024-02-04T02:52:54;100398.34;;;7.70;100.00
42761;BME280;31672;47.638;19.026;2024-02-04T02:57:57;100404.47;;;7.71;100.00
42761;BME280;31672;47.638;19.026;2024-02-04T03:03:01;100416.53;;;7.73;100.00
42761;BME280;31672;47.638;19.026;2024-02-04T03:08:05;100392.75;;;7.73;100.00
42761;BME280;31672;47.638;19.026;2024-02-04T03:13:08;100398.03;;;7.73;100.00
42761;BME280;31672;47.638;19.026;2024-02-04T03:18:15;100407.50;;;7.76;100.00
42761;BME280;31672;47.638;19.026;2024-02-04T03:23:19;100425.59;;;7.81;100.00
42761;BME280;31672;47.638;19.026;2024-02-04T03:28:23;100428.38;;;7.79;100.00
42761;BME280;31672;47.638;19.026;2024-02-04T03:33:26;100420.31;;;7.81;100.00
42761;BME280;31672;47.638;19.026;2024-02-04T03:38:30;100420.59;;;7.77;100.00
42761;BME280;31672;47.638;19.026;2024-02-04T03:43:36;100415.03;;;7.71;100.00
42761;BME280;31672;47.638;19.026;2024-02-04T03:48:40;100448.28;;;7.73;100.00
42761;BME280;31672;47.638;19.026;2024-02-04T03:53:45;100435.06;;;7.73;100.00
42761;BME280;31672;47.638;19.026;2024-02-04T03:58:48;100430.75;;;7.72;100.00
42761;BME280;31672;47.638;19.026;2024-02-04T04:03:52;100418.09;;;7.66;100.00
42761;BME280;31672;47.638;19.026;2024-02-04T04:08:55;100432.56;;;7.72;100.00
42761;BME280;31672;47.638;19.026;2024-02-04T04:14:02;100423.66;;;7.73;100.00
42761;BME280;31672;47.638;19.026;2024-02-04T04:19:05;100418.09;;;7.76;100.00
42761;BME280;31672;47.638;19.026;2024-02-04T04:24:10;100426.44;;;7.81;100.00
42761;BME280;31672;47.638;19.026;2024-02-04T04:29:13;100419.16;;;7.83;100.00
42761;BME280;31672;47.638;19.026;2024-02-04T04:34:16;100412.47;;;7.89;100.00
42761;BME280;31672;47.638;19.026;2024-02-04T04:39:22;100425.44;;;7.92;100.00
42761;BME280;31672;47.638;19.026;2024-02-04T04:44:25;100424.03;;;7.88;100.00
42761;BME280;31672;47.638;19.026;2024-02-04T04:49:29;100403.56;;;7.90;100.00
42761;BME280;31672;47.638;19.026;2024-02-04T04:54:33;100399.25;;;7.89;100.00
42761;BME280;31672;47.638;19.026;2024-02-04T04:59:37;100395.34;;;7.83;100.00
42761;BME280;31672;47.638;19.026;2024-02-04T05:04:44;100402.75;;;7.79;100.00
42761;BME280;31672;47.638;19.026;2024-02-04T05:09:48;100390.81;;;7.75;100.00
42761;BME280;31672;47.638;19.026;2024-02-04T05:14:52;100399.84;;;7.73;100.00
42761;BME280;31672;47.638;19.026;2024-02-04T05:19:56;100391.81;;;7.65;100.00
42761;BME280;31672;47.638;19.026;2024-02-04T05:25:00;100398.41;;;7.51;100.00
42761;BME280;31672;47.638;19.026;2024-02-04T05:30:05;100396.47;;;7.34;100.00
42761;BME280;31672;47.638;19.026;2024-02-04T05:35:08;100409.72;;;7.24;100.00
42761;BME280;31672;47.638;19.026;2024-02-04T05:40:12;100400.81;;;7.15;100.00
42761;BME280;31672;47.638;19.026;2024-02-04T05:45:17;100386.38;;;7.00;100.00
42761;BME280;31672;47.638;19.026;2024-02-04T05:50:20;100401.81;;;6.85;100.00
42761;BME280;31672;47.638;19.026;2024-02-04T05:55:24;100401.13;;;6.74;100.00
42761;BME280;31672;47.638;19.026;2024-02-04T06:00:27;100390.97;;;6.69;100.00
42761;BME280;31672;47.638;19.026;2024-02-04T06:05:31;100400.97;;;6.85;100.00
42761;BME280;31672;47.638;19.026;2024-02-04T06:10:34;100405.28;;;7.05;100.00
42761;BME280;31672;47.638;19.026;2024-02-04T06:15:38;100407.63;;;7.18;100.00
42761;BME280;31672;47.638;19.026;2024-02-04T06:20:41;100411.53;;;7.23;100.00
42761;BME280;31672;47.638;19.026;2024-02-04T06:25:45;100427.13;;;7.27;100.00
42761;BME280;31672;47.638;19.026;2024-02-04T06:30:49;100433.75;;;7.31;100.00
42761;BME280;31672;47.638;19.026;2024-02-04T06:35:53;100438.50;;;7.37;100.00
42761;BME280;31672;47.638;19.026;2024-02-04T06:40:56;100435.41;;;7.51;100.00
42761;BME280;31672;47.638;19.026;2024-02-04T06:46:00;100449.84;;;7.66;100.00
42761;BME280;31672;47.638;19.026;2024-02-04T06:51:03;100461.81;;;7.70;100.00
42761;BME280;31672;47.638;19.026;2024-02-04T06:56:06;100466.94;;;7.82;100.00
42761;BME280;31672;47.638;19.026;2024-02-04T07:01:14;100453.53;;;7.93;100.00
42761;BME280;31672;47.638;19.026;2024-02-04T07:06:18;100470.03;;;8.14;100.00
42761;BME280;31672;47.638;19.026;2024-02-04T07:11:22;100477.88;;;8.33;100.00
42761;BME280;31672;47.638;19.026;2024-02-04T07:16:27;100488.72;;;8.50;100.00
42761;BME280;31672;47.638;19.026;2024-02-04T07:21:31;100480.13;;;8.66;100.00
42761;BME280;31672;47.638;19.026;2024-02-04T07:26:34;100468.78;;;8.73;100.00
42761;BME280;31672;47.638;19.026;2024-02-04T07:31:38;100470.69;;;8.81;100.00
42761;BME280;31672;47.638;19.026;2024-02-04T07:36:45;100471.00;;;8.78;100.00
42761;BME280;31672;47.638;19.026;2024-02-04T07:41:48;100469.19;;;8.78;100.00
42761;BME280;31672;47.638;19.026;2024-02-04T07:46:51;100468.03;;;8.81;100.00
42761;BME280;31672;47.638;19.026;2024-02-04T07:51:55;100477.50;;;8.83;99.87
42761;BME280;31672;47.638;19.026;2024-02-04T07:56:59;100482.88;;;8.92;99.23
42761;BME280;31672;47.638;19.026;2024-02-04T08:02:03;100472.66;;;8.97;98.23
42761;BME280;31672;47.638;19.026;2024-02-04T08:07:07;100470.41;;;9.02;97.87
42761;BME280;31672;47.638;19.026;2024-02-04T08:12:11;100465.31;;;9.08;97.07
42761;BME280;31672;47.638;19.026;2024-02-04T08:17:14;100463.44;;;9.19;95.30
42761;BME280;31672;47.638;19.026;2024-02-04T08:22:18;100479.03;;;9.22;95.07
42761;BME280;31672;47.638;19.026;2024-02-04T08:27:22;100468.59;;;9.20;94.60
42761;BME280;31672;47.638;19.026;2024-02-04T08:32:26;100475.84;;;9.36;94.55
42761;BME280;31672;47.638;19.026;2024-02-04T08:37:30;100465.16;;;9.98;91.33
42761;BME280;31672;47.638;19.026;2024-02-04T08:42:34;100484.72;;;10.57;84.63
42761;BME280;31672;47.638;19.026;2024-02-04T08:47:37;100465.13;;;10.58;83.03
42761;BME280;31672;47.638;19.026;2024-02-04T08:52:41;100450.53;;;10.62;81.71
42761;BME280;31672;47.638;19.026;2024-02-04T08:57:45;100455.56;;;10.81;81.05
42761;BME280;31672;47.638;19.026;2024-02-04T09:02:48;100454.75;;;11.13;78.27
42761;BME280;31672;47.638;19.026;2024-02-04T09:07:52;100428.16;;;11.38;77.08
42761;BME280;31672;47.638;19.026;2024-02-04T09:12:58;100422.97;;;11.85;72.69
42761;BME280;31672;47.638;19.026;2024-02-04T09:18:02;100419.91;;;12.04;70.90
42761;BME280;31672;47.638;19.026;2024-02-04T09:23:06;100402.84;;;12.22;70.14
42761;BME280;31672;47.638;19.026;2024-02-04T09:28:10;100414.66;;;12.58;66.65
42761;BME280;31672;47.638;19.026;2024-02-04T09:33:14;100421.16;;;12.87;66.55
42761;BME280;31672;47.638;19.026;2024-02-04T09:38:19;100421.78;;;13.12;65.17
42761;BME280;31672;47.638;19.026;2024-02-04T09:43:24;100422.28;;;13.16;63.77
42761;BME280;31672;47.638;19.026;2024-02-04T09:48:33;100416.34;;;13.05;63.17
42761;BME280;31672;47.638;19.026;2024-02-04T09:53:44;100424.50;;;12.81;64.86
42761;BME280;31672;47.638;19.026;2024-02-04T09:58:48;100430.88;;;12.49;65.45
42761;BME280;31672;47.638;19.026;2024-02-04T10:03:56;100419.41;;;12.40;66.02
42761;BME280;31672;47.638;19.026;2024-02-04T10:09:00;100395.03;;;12.20;66.93
42761;BME280;31672;47.638;19.026;2024-02-04T10:14:04;100401.94;;;11.98;68.61
42761;BME280;31672;47.638;19.026;2024-02-04T10:19:09;100406.28;;;11.91;69.68
42761;BME280;31672;47.638;19.026;2024-02-04T10:24:14;100390.69;;;11.72;69.25
42761;BME280;31672;47.638;19.026;2024-02-04T10:29:18;100389.03;;;11.71;70.22
42761;BME280;31672;47.638;19.026;2024-02-04T10:34:23;100368.56;;;11.71;70.13
42761;BME280;31672;47.638;19.026;2024-02-04T10:39:28;100365.44;;;11.60;70.29
42761;BME280;31672;47.638;19.026;2024-02-04T10:44:35;100367.09;;;11.61;70.14
42761;BME280;31672;47.638;19.026;2024-02-04T10:49:51;100372.41;;;11.61;70.10
42761;BME280;31672;47.638;19.026;2024-02-04T10:54:57;100351.81;;;11.55;69.08
42761;BME280;31672;47.638;19.026;2024-02-04T11:00:03;100353.16;;;11.42;68.98
42761;BME280;31672;47.638;19.026;2024-02-04T11:05:15;100349.50;;;11.43;69.72
42761;BME280;31672;47.638;19.026;2024-02-04T11:10:20;100339.03;;;11.42;69.47
42761;BME280;31672;47.638;19.026;2024-02-04T11:15:32;100351.84;;;11.46;68.58
42761;BME280;31672;47.638;19.026;2024-02-04T11:21:03;100346.47;;;11.55;68.37
42761;BME280;31672;47.638;19.026;2024-02-04T11:26:17;100349.47;;;11.60;67.68
42761;BME280;31672;47.638;19.026;2024-02-04T11:31:21;100339.66;;;11.60;67.42
42761;BME280;31672;47.638;19.026;2024-02-04T11:36:25;100344.94;;;11.68;66.80
42761;BME280;31672;47.638;19.026;2024-02-04T11:41:29;100329.25;;;11.90;66.55
42761;BME280;31672;47.638;19.026;2024-02-04T11:46:33;100322.03;;;12.07;64.02
42761;BME280;31672;47.638;19.026;2024-02-04T11:51:38;100304.72;;;12.02;63.29
42761;BME280;31672;47.638;19.026;2024-02-04T11:56:43;100303.41;;;11.98;63.40
42761;BME280;31672;47.638;19.026;2024-02-04T12:01:47;100292.44;;;11.93;64.65
42761;BME280;31672;47.638;19.026;2024-02-04T12:06:52;100286.28;;;11.93;64.75
42761;BME280;31672;47.638;19.026;2024-02-04T12:11:56;100283.09;;;11.97;64.95
42761;BME280;31672;47.638;19.026;2024-02-04T12:17:09;100295.78;;;11.87;63.80
42761;BME280;31672;47.638;19.026;2024-02-04T12:22:14;100288.66;;;11.79;64.68
42761;BME280;31672;47.638;19.026;2024-02-04T12:27:18;100303.31;;;11.84;65.46
42761;BME280;31672;47.638;19.026;2024-02-04T12:32:22;100307.47;;;11.86;65.03
42761;BME280;31672;47.638;19.026;2024-02-04T12:37:25;100298.47;;;11.87;66.02
42761;BME280;31672;47.638;19.026;2024-02-04T12:42:30;100299.47;;;11.86;66.46
42761;BME280;31672;47.638;19.026;2024-02-04T12:47:33;100306.63;;;11.86;65.78
42761;BME280;31672;47.638;19.026;2024-02-04T12:52:37;100293.81;;;11.81;66.02
42761;BME280;31672;47.638;19.026;2024-02-04T12:57:44;100276.53;;;11.77;66.33
42761;BME280;31672;47.638;19.026;2024-02-04T13:02:50;100267.72;;;11.76;65.99
42761;BME280;31672;47.638;19.026;2024-02-04T13:08:04;100278.72;;;11.82;66.70
42761;BME280;31672;47.638;19.026;2024-02-04T13:13:11;100279.66;;;11.89;66.92
42761;BME280;31672;47.638;19.026;2024-02-04T13:18:17;100262.50;;;11.91;67.10
42761;BME280;31672;47.638;19.026;2024-02-04T13:23:20;100263.00;;;11.95;67.35
42761;BME280;31672;47.638;19.026;2024-02-04T13:28:23;100256.13;;;12.00;67.84
42761;BME280;31672;47.638;19.026;2024-02-04T13:33:27;100227.81;;;11.99;67.81
42761;BME280;31672;47.638;19.026;2024-02-04T13:38:31;100233.31;;;11.98;68.29
42761;BME280;31672;47.638;19.026;2024-02-04T13:43:34;100223.16;;;12.01;68.70
42761;BME280;31672;47.638;19.026;2024-02-04T13:48:37;100225.16;;;11.99;68.29
42761;BME280;31672;47.638;19.026;2024-02-04T13:53:41;100239.66;;;11.97;68.08
42761;BME280;31672;47.638;19.026;2024-02-04T13:58:45;100214.50;;;11.99;68.73
42761;BME280;31672;47.638;19.026;2024-02-04T14:03:49;100222.88;;;11.96;68.67
42761;BME280;31672;47.638;19.026;2024-02-04T14:08:53;100227.41;;;11.88;69.38
42761;BME280;31672;47.638;19.026;2024-02-04T14:13:56;100222.91;;;11.80;69.67
42761;BME280;31672;47.638;19.026;2024-02-04T14:18:59;100214.16;;;11.71;70.52
42761;BME280;31672;47.638;19.026;2024-02-04T14:24:04;100214.72;;;11.59;70.97
42761;BME280;31672;47.638;19.026;2024-02-04T14:29:08;100207.78;;;11.49;71.61
42761;BME280;31672;47.638;19.026;2024-02-04T14:34:11;100211.78;;;11.45;72.31
42761;BME280;31672;47.638;19.026;2024-02-04T14:39:15;100194.69;;;11.40;72.80
42761;BME280;31672;47.638;19.026;2024-02-04T14:44:22;100171.44;;;11.34;73.41
42761;BME280;31672;47.638;19.026;2024-02-04T14:49:26;100177.28;;;11.29;72.58
42761;BME280;31672;47.638;19.026;2024-02-04T14:54:31;100182.16;;;11.17;72.16
42761;BME280;31672;47.638;19.026;2024-02-04T14:59:35;100187.00;;;11.06;72.62
42761;BME280;31672;47.638;19.026;2024-02-04T15:04:41;100175.91;;;10.94;72.61
42761;BME280;31672;47.638;19.026;2024-02-04T15:09:44;100163.84;;;10.75;73.01
42761;BME280;31672;47.638;19.026;2024-02-04T15:14:48;100172.31;;;10.70;73.79
42761;BME280;31672;47.638;19.026;2024-02-04T15:19:52;100168.16;;;10.60;74.66
42761;BME280;31672;47.638;19.026;2024-02-04T15:24:56;100159.22;;;10.53;74.70
42761;BME280;31672;47.638;19.026;2024-02-04T15:30:02;100161.72;;;10.46;75.10
42761;BME280;31672;47.638;19.026;2024-02-04T15:35:07;100146.63;;;10.38;74.72
42761;BME280;31672;47.638;19.026;2024-02-04T15:40:11;100150.78;;;10.33;74.72
42761;BME280;31672;47.638;19.026;2024-02-04T15:45:17;100154.94;;;10.27;74.60
42761;BME280;31672;47.638;19.026;2024-02-04T15:50:22;100172.84;;;10.25;74.90
42761;BME280;31672;47.638;19.026;2024-02-04T15:55:26;100151.44;;;10.27;75.54
42761;BME280;31672;47.638;19.026;2024-02-04T16:00:30;100152.59;;;10.24;76.63
42761;BME280;31672;47.638;19.026;2024-02-04T16:05:35;100146.91;;;10.19;77.68
42761;BME280;31672;47.638;19.026;2024-02-04T16:10:39;100151.41;;;10.10;78.61
42761;BME280;31672;47.638;19.026;2024-02-04T16:15:43;100158.56;;;10.02;79.96
42761;BME280;31672;47.638;19.026;2024-02-04T16:20:49;100151.56;;;9.92;80.92
42761;BME280;31672;47.638;19.026;2024-02-04T16:25:52;100165.50;;;9.86;81.49
42761;BME280;31672;47.638;19.026;2024-02-04T16:30:58;100189.03;;;9.81;82.34
42761;BME280;31672;47.638;19.026;2024-02-04T16:36:01;100185.06;;;9.85;81.98
42761;BME280;31672;47.638;19.026;2024-02-04T16:41:09;100172.28;;;9.81;82.01
42761;BME280;31672;47.638;19.026;2024-02-04T16:46:13;100167.16;;;9.79;81.83
42761;BME280;31672;47.638;19.026;2024-02-04T16:51:17;100169.97;;;9.78;81.67
42761;BME280;31672;47.638;19.026;2024-02-04T16:56:21;100162.31;;;9.75;81.47
42761;BME280;31672;47.638;19.026;2024-02-04T17:01:28;100151.06;;;9.73;81.18
42761;BME280;31672;47.638;19.026;2024-02-04T17:06:32;100163.81;;;9.77;80.88
42761;BME280;31672;47.638;19.026;2024-02-04T17:11:36;100155.84;;;9.77;80.85
42761;BME280;31672;47.638;19.026;2024-02-04T17:17:05;100169.47;;;9.82;80.67
42761;BME280;31672;47.638;19.026;2024-02-04T17:22:17;100150.88;;;9.82;80.66
42761;BME280;31672;47.638;19.026;2024-02-04T17:27:26;100153.53;;;9.82;80.34
42761;BME280;31672;47.638;19.026;2024-02-04T17:32:30;100143.59;;;9.84;80.04
42761;BME280;31672;47.638;19.026;2024-02-04T17:37:35;100138.28;;;9.92;78.70
42761;BME280;31672;47.638;19.026;2024-02-04T17:42:39;100139.97;;;10.02;76.98
42761;BME280;31672;47.638;19.026;2024-02-04T17:47:43;100140.63;;;10.12;76.13
42761;BME280;31672;47.638;19.026;2024-02-04T17:52:50;100141.78;;;10.17;75.56
42761;BME280;31672;47.638;19.026;2024-02-04T17:57:53;100112.91;;;10.23;75.21
42761;BME280;31672;47.638;19.026;2024-02-04T18:03:00;100111.41;;;10.20;74.95
42761;BME280;31672;47.638;19.026;2024-02-04T18:08:04;100113.06;;;10.21;75.74
42761;BME280;31672;47.638;19.026;2024-02-04T18:13:08;100116.22;;;10.16;76.31
42761;BME280;31672;47.638;19.026;2024-02-04T18:18:11;100120.72;;;10.16;76.71
42761;BME280;31672;47.638;19.026;2024-02-04T18:23:17;100125.84;;;10.17;76.92
42761;BME280;31672;47.638;19.026;2024-02-04T18:28:22;100116.88;;;10.18;77.23
42761;BME280;31672;47.638;19.026;2024-02-04T18:33:25;100114.09;;;10.20;77.47
42761;BME280;31672;47.638;19.026;2024-02-04T18:38:29;100140.63;;;10.20;78.26
42761;BME280;31672;47.638;19.026;2024-02-04T18:43:33;100119.72;;;10.17;78.07
42761;BME280;31672;47.638;19.026;2024-02-04T18:48:38;100122.38;;;10.17;78.14
42761;BME280;31672;47.638;19.026;2024-02-04T18:53:41;100121.72;;;10.15;78.61
42761;BME280;31672;47.638;19.026;2024-02-04T18:58:46;100140.31;;;10.15;79.04
42761;BME280;31672;47.638;19.026;2024-02-04T19:03:55;100113.75;;;10.15;79.24
42761;BME280;31672;47.638;19.026;2024-02-04T19:08:58;100133.63;;;10.19;80.94
42761;BME280;31672;47.638;19.026;2024-02-04T19:14:03;100119.72;;;10.09;84.13
42761;BME280;31672;47.638;19.026;2024-02-04T19:19:07;100101.78;;;9.95;85.54
42761;BME280;31672;47.638;19.026;2024-02-04T19:24:14;100103.28;;;9.89;87.83
42761;BME280;31672;47.638;19.026;2024-02-04T19:29:19;100092.00;;;9.71;91.62
42761;BME280;31672;47.638;19.026;2024-02-04T19:34:23;100098.28;;;9.53;94.98
42761;BME280;31672;47.638;19.026;2024-02-04T19:39:27;100086.00;;;9.36;98.77
42761;BME280;31672;47.638;19.026;2024-02-04T19:44:30;100077.34;;;9.18;100.00
42761;BME280;31672;47.638;19.026;2024-02-04T19:49:33;100059.06;;;9.06;100.00
42761;BME280;31672;47.638;19.026;2024-02-04T19:54:37;100047.66;;;9.06;100.00
42761;BME280;31672;47.638;19.026;2024-02-04T19:59:40;100032.41;;;9.16;98.57
42761;BME280;31672;47.638;19.026;2024-02-04T20:04:45;100036.41;;;9.28;95.57
42761;BME280;31672;47.638;19.026;2024-02-04T20:09:49;100028.63;;;9.35;93.88
42761;BME280;31672;47.638;19.026;2024-02-04T20:14:53;100019.53;;;9.46;90.85
42761;BME280;31672;47.638;19.026;2024-02-04T20:19:56;100013.91;;;9.57;88.80
42761;BME280;31672;47.638;19.026;2024-02-04T20:25:03;100016.53;;;9.65;87.29
42761;BME280;31672;47.638;19.026;2024-02-04T20:30:08;100023.50;;;9.82;84.78
42761;BME280;31672;47.638;19.026;2024-02-04T20:35:15;100009.72;;;9.87;83.32
42761;BME280;31672;47.638;19.026;2024-02-04T20:40:19;100025.63;;;9.95;81.93
42761;BME280;31672;47.638;19.026;2024-02-04T20:45:22;100011.72;;;9.93;81.61
42761;BME280;31672;47.638;19.026;2024-02-04T20:50:26;100024.66;;;9.96;81.66
42761;BME280;31672;47.638;19.026;2024-02-04T20:55:29;100016.53;;;9.98;81.17
42761;BME280;31672;47.638;19.026;2024-02-04T21:00:33;100000.59;;;9.98;80.45
42761;BME280;31672;47.638;19.026;2024-02-04T21:05:37;99998.94;;;9.97;81.53
42761;BME280;31672;47.638;19.026;2024-02-04T21:10:42;99994.78;;;9.94;81.55
42761;BME280;31672;47.638;19.026;2024-02-04T21:15:46;99988.31;;;9.97;82.91
42761;BME280;31672;47.638;19.026;2024-02-04T21:20:50;99982.38;;;9.86;85.03
42761;BME280;31672;47.638;19.026;2024-02-04T21:25:53;100001.28;;;9.75;89.37
42761;BME280;31672;47.638;19.026;2024-02-04T21:30:57;99959.34;;;9.46;94.69
42761;BME280;31672;47.638;19.026;2024-02-04T21:36:02;99974.25;;;9.23;100.00
42761;BME280;31672;47.638;19.026;2024-02-04T21:41:06;99965.13;;;9.01;100.00
42761;BME280;31672;47.638;19.026;2024-02-04T21:46:09;99938.59;;;8.84;100.00
42761;BME280;31672;47.638;19.026;2024-02-04T21:51:13;99966.09;;;8.83;100.00
42761;BME280;31672;47.638;19.026;2024-02-04T21:56:17;99941.06;;;8.86;100.00
42761;BME280;31672;47.638;19.026;2024-02-04T22:01:21;99936.94;;;8.92;100.00
42761;BME280;31672;47.638;19.026;2024-02-04T22:06:24;99941.28;;;9.01;100.00
42761;BME280;31672;47.638;19.026;2024-02-04T22:11:28;99922.72;;;9.09;100.00
42761;BME280;31672;47.638;19.026;2024-02-04T22:16:37;99911.78;;;9.20;100.00
42761;BME280;31672;47.638;19.026;2024-02-04T22:21:41;99920.25;;;9.32;98.60
42761;BME280;31672;47.638;19.026;2024-02-04T22:26:45;99897.19;;;9.41;95.82
42761;BME280;31672;47.638;19.026;2024-02-04T22:31:49;99879.63;;;9.39;94.89
42761;BME280;31672;47.638;19.026;2024-02-04T22:36:53;99883.94;;;9.49;93.74
42761;BME280;31672;47.638;19.026;2024-02-04T22:41:57;99875.66;;;9.44;93.94
42761;BME280;31672;47.638;19.026;2024-02-04T22:47:01;99865.69;;;9.46;93.28
42761;BME280;31672;47.638;19.026;2024-02-04T22:52:05;99881.44;;;9.47;93.42
42761;BME280;31672;47.638;19.026;2024-02-04T22:57:10;99876.63;;;9.51;93.14
42761;BME280;31672;47.638;19.026;2024-02-04T23:02:13;99866.00;;;9.51;91.38
42761;BME280;31672;47.638;19.026;2024-02-04T23:07:17;99857.06;;;9.60;90.46
42761;BME280;31672;47.638;19.026;2024-02-04T23:12:38;99875.63;;;9.60;89.93
42761;BME280;31672;47.638;19.026;2024-02-04T23:17:41;99840.09;;;9.69;88.89
42761;BME280;31672;47.638;19.026;2024-02-04T23:22:45;99834.28;;;9.74;88.54
42761;BME280;31672;47.638;19.026;2024-02-04T23:27:48;99826.97;;;9.76;88.69
42761;BME280;31672;47.638;19.026;2024-02-04T23:32:52;99832.97;;;9.78;88.39
42761;BME280;31672;47.638;19.026;2024-02-04T23:37:55;99838.41;;;9.84;87.81
42761;BME280;31672;47.638;19.026;2024-02-04T23:42:59;99860.41;;;9.93;87.40
42761;BME280;31672;47.638;19.026;2024-02-04T23:48:03;99865.88;;;10.00;87.70
42761;BME280;31672;47.638;19.026;2024-02-04T23:53:07;99849.56;;;10.11;87.08
42761;BME280;31672;47.638;19.026;2024-02-04T23:58:12;99856.47;;;10.28;85.97
